Brunswick, Maine
Current Conditions -  °F | °C
As of 5:53 PM on Wednesday 17 Dec 2014 (Local Time) from KIWI Reporting Station
Light Rain Light Rain  
Wind Chill: 38°   Ceiling: 700
Heat Index: 38°   Visibility: 3mi
Dew Point: 36°   Wind: 0mph
Humidity: 93%   Direction: NA
Pressure: 29.68"   Gusts: NA
Location:  43.92°N, 69.96°W
Report Text: KIWI 172253Z AUTO 00000KT 3SM -RA BR BKN007 OVC012 03/02 A2968 RMK AO2 RAB13 SLP050 P0004 T00330022
Loading
Personal Weather Stations






























Interactive Weather Map New forecast layout! Learn more

10-Day Weather Forecast

Advertisements
Track Severe Weather on mobile